createdAt,value
2022-09-29T00:00:40.513Z,100.00
2022-09-29T00:03:07.659Z,100.00
2022-09-29T00:05:35.539Z,100.00
2022-09-29T00:08:02.626Z,100.00
2022-09-29T00:10:29.660Z,100.00
2022-09-29T00:12:56.736Z,100.00
2022-09-29T00:15:23.747Z,100.00
2022-09-29T00:18:12.664Z,100.00
2022-09-29T00:20:38.812Z,100.00
2022-09-29T00:23:05.864Z,100.00
2022-09-29T00:25:32.981Z,100.00
2022-09-29T00:27:59.960Z,100.00
2022-09-29T00:30:27.340Z,100.00
2022-09-29T00:32:54.702Z,100.00
2022-09-29T00:35:21.816Z,100.00
2022-09-29T00:37:49.124Z,100.00
2022-09-29T00:40:16.496Z,100.00
2022-09-29T00:42:43.517Z,100.00
2022-09-29T00:45:18.459Z,100.00
2022-09-29T00:47:53.156Z,100.00
2022-09-29T00:50:33.100Z,100.00
2022-09-29T00:53:02.739Z,100.00
2022-09-29T00:55:39.330Z,100.00
2022-09-29T00:58:17.145Z,100.00
2022-09-29T01:00:44.522Z,100.00
2022-09-29T01:03:20.152Z,100.00
2022-09-29T01:05:53.518Z,100.00
2022-09-29T01:08:45.117Z,100.00
2022-09-29T01:11:13.154Z,100.00
2022-09-29T01:13:41.638Z,100.00
2022-09-29T01:16:08.965Z,100.00
2022-09-29T01:18:36.557Z,100.00
2022-09-29T01:21:31.073Z,100.00
2022-09-29T01:24:29.259Z,100.00
2022-09-29T01:27:18.108Z,100.00
2022-09-29T01:30:02.189Z,100.00
2022-09-29T01:32:40.552Z,100.00
2022-09-29T01:35:18.825Z,100.00
2022-09-29T01:38:02.340Z,100.00
2022-09-29T01:40:35.780Z,100.00
2022-09-29T01:43:28.494Z,100.00
2022-09-29T01:46:04.512Z,100.00
2022-09-29T01:48:38.030Z,100.00
2022-09-29T01:51:11.352Z,100.00
2022-09-29T01:53:45.712Z,100.00
2022-09-29T01:56:20.769Z,100.00
2022-09-29T01:59:25.434Z,100.00
2022-09-29T02:02:00.808Z,100.00
2022-09-29T02:05:00.658Z,100.00
2022-09-29T02:07:39.958Z,100.00
2022-09-29T02:10:22.333Z,100.00
2022-09-29T02:12:53.451Z,100.00
2022-09-29T02:15:26.882Z,100.00
2022-09-29T02:17:57.408Z,100.00
2022-09-29T02:20:24.483Z,100.00
2022-09-29T02:22:51.527Z,100.00
2022-09-29T02:25:19.600Z,100.00
2022-09-29T02:27:47.730Z,100.00
2022-09-29T02:30:14.745Z,100.00
2022-09-29T02:32:41.809Z,100.00
2022-09-29T02:35:12.636Z,100.00
2022-09-29T02:37:58.535Z,100.00
2022-09-29T02:40:29.712Z,100.00
2022-09-29T02:43:07.409Z,100.00
2022-09-29T02:46:18.594Z,100.00
2022-09-29T02:49:16.380Z,100.00
2022-09-29T02:51:51.281Z,100.00
2022-09-29T02:54:37.898Z,100.00
2022-09-29T02:57:24.747Z,100.00
2022-09-29T03:00:06.859Z,100.00
2022-09-29T03:02:34.020Z,100.00
2022-09-29T03:05:01.542Z,100.00
2022-09-29T03:07:28.909Z,100.00
2022-09-29T03:09:55.915Z,100.00
2022-09-29T03:12:22.951Z,100.00
2022-09-29T03:14:49.918Z,100.00
2022-09-29T03:17:16.906Z,100.00
2022-09-29T03:19:43.860Z,100.00
2022-09-29T03:22:10.905Z,100.00
2022-09-29T03:24:37.933Z,100.00
2022-09-29T03:27:05.080Z,100.00
2022-09-29T03:29:32.185Z,100.00
2022-09-29T03:32:00.272Z,100.00
2022-09-29T03:34:27.431Z,100.00
2022-09-29T03:36:54.623Z,100.00
2022-09-29T03:39:21.694Z,100.00
2022-09-29T03:41:48.681Z,100.00
2022-09-29T03:44:16.006Z,100.00
2022-09-29T03:46:43.541Z,100.00
2022-09-29T03:49:11.510Z,100.00
2022-09-29T03:51:39.360Z,100.00
2022-09-29T03:54:07.030Z,100.00
2022-09-29T03:56:34.725Z,100.00
2022-09-29T03:59:01.737Z,100.00
2022-09-29T04:01:28.842Z,100.00
2022-09-29T04:03:55.866Z,100.00
2022-09-29T04:06:22.880Z,100.00
2022-09-29T04:08:50.145Z,100.00
2022-09-29T04:11:17.123Z,100.00
2022-09-29T04:13:44.099Z,100.00
2022-09-29T04:16:11.348Z,100.00
2022-09-29T04:18:38.421Z,100.00
2022-09-29T04:21:07.497Z,100.00
2022-09-29T04:23:35.134Z,100.00
2022-09-29T04:26:02.464Z,100.00
2022-09-29T04:28:33.915Z,100.00
2022-09-29T04:31:01.462Z,100.00
2022-09-29T04:33:29.921Z,100.00
2022-09-29T04:35:58.733Z,100.00
2022-09-29T04:38:26.106Z,100.00
2022-09-29T04:40:53.154Z,100.00
2022-09-29T04:43:20.237Z,100.00
2022-09-29T04:45:47.371Z,100.00
2022-09-29T04:48:14.595Z,100.00
2022-09-29T04:50:43.004Z,100.00
2022-09-29T04:53:11.467Z,100.00
2022-09-29T04:55:38.898Z,100.00
2022-09-29T04:58:06.184Z,100.00
2022-09-29T05:00:34.061Z,100.00
2022-09-29T05:03:01.061Z,100.00
2022-09-29T05:05:28.074Z,100.00
2022-09-29T05:07:55.136Z,100.00
2022-09-29T05:10:22.360Z,100.00
2022-09-29T05:12:50.756Z,100.00
2022-09-29T05:15:22.272Z,100.00
2022-09-29T05:17:52.048Z,100.00
2022-09-29T05:20:19.101Z,100.00
2022-09-29T05:22:46.148Z,100.00
2022-09-29T05:25:13.136Z,100.00
2022-09-29T05:27:40.212Z,100.00
2022-09-29T05:30:07.612Z,100.00
2022-09-29T05:32:35.738Z,100.00
2022-09-29T05:35:03.349Z,100.00
2022-09-29T05:37:30.459Z,100.00
2022-09-29T05:39:57.428Z,100.00
2022-09-29T05:42:25.548Z,100.00
2022-09-29T05:44:52.545Z,100.00
2022-09-29T05:47:19.854Z,100.00
2022-09-29T05:49:46.816Z,100.00
2022-09-29T05:52:13.849Z,100.00
2022-09-29T05:54:40.851Z,100.00
2022-09-29T05:57:07.935Z,100.00
2022-09-29T05:59:34.977Z,100.00
2022-09-29T06:02:02.010Z,100.00
2022-09-29T06:04:29.158Z,100.00
2022-09-29T06:06:57.177Z,100.00
2022-09-29T06:09:24.257Z,100.00
2022-09-29T06:11:51.337Z,100.00
2022-09-29T06:14:18.477Z,100.00
2022-09-29T06:16:45.752Z,100.00
2022-09-29T06:19:13.717Z,100.00
2022-09-29T06:21:40.787Z,100.00
2022-09-29T06:24:08.010Z,100.00
2022-09-29T06:26:35.537Z,100.00
2022-09-29T06:29:03.226Z,100.00
2022-09-29T06:31:31.490Z,100.00
2022-09-29T06:34:04.422Z,100.00
2022-09-29T06:37:01.519Z,100.00
2022-09-29T06:39:29.394Z,100.00
2022-09-29T06:41:56.605Z,100.00
2022-09-29T06:44:26.413Z,100.00
2022-09-29T06:46:54.750Z,100.00
2022-09-29T06:49:22.554Z,100.00
2022-09-29T06:51:50.833Z,100.00
2022-09-29T06:54:24.557Z,100.00
2022-09-29T06:56:52.909Z,100.00
2022-09-29T06:59:20.277Z,100.00
2022-09-29T07:01:50.477Z,100.00
2022-09-29T07:04:20.293Z,100.00
2022-09-29T07:06:47.796Z,100.00
2022-09-29T07:09:18.004Z,100.00
2022-09-29T07:11:48.577Z,100.00
2022-09-29T07:14:16.961Z,100.00
2022-09-29T07:16:44.500Z,100.00
2022-09-29T07:19:11.526Z,100.00
2022-09-29T07:21:38.642Z,100.00
2022-09-29T07:24:06.074Z,100.00
2022-09-29T07:26:33.164Z,100.00
2022-09-29T07:29:00.281Z,100.00
2022-09-29T07:31:27.512Z,100.00
2022-09-29T07:33:56.449Z,100.00
2022-09-29T07:36:23.494Z,100.00
2022-09-29T07:38:52.002Z,100.00
2022-09-29T07:41:21.404Z,100.00
2022-09-29T07:43:48.529Z,100.00
2022-09-29T07:46:15.728Z,100.00
2022-09-29T07:48:42.941Z,100.00
2022-09-29T07:51:16.176Z,100.00
2022-09-29T07:53:43.345Z,100.00
2022-09-29T07:56:22.661Z,100.00
2022-09-29T07:58:50.591Z,100.00
2022-09-29T08:01:19.940Z,100.00
2022-09-29T08:03:54.705Z,100.00
2022-09-29T08:06:23.537Z,100.00
2022-09-29T08:09:02.688Z,100.00
2022-09-29T08:11:32.783Z,100.00
2022-09-29T08:14:00.791Z,100.00
2022-09-29T08:16:28.200Z,100.00
2022-09-29T08:18:55.261Z,100.00
2022-09-29T08:21:22.579Z,100.00
2022-09-29T08:23:49.833Z,100.00
2022-09-29T08:26:22.036Z,100.00
2022-09-29T08:29:05.649Z,100.00
2022-09-29T08:31:35.637Z,100.00
2022-09-29T08:34:02.684Z,100.00
2022-09-29T08:36:29.652Z,100.00
2022-09-29T08:38:57.439Z,100.00
2022-09-29T08:41:45.655Z,100.00
2022-09-29T08:44:41.651Z,100.00
2022-09-29T08:47:33.320Z,100.00
2022-09-29T08:50:05.059Z,100.00
2022-09-29T08:52:48.845Z,100.00
2022-09-29T08:55:21.466Z,100.00
2022-09-29T08:58:01.315Z,100.00
2022-09-29T09:00:48.726Z,100.00
2022-09-29T09:03:24.854Z,100.00
2022-09-29T09:06:11.298Z,100.00
2022-09-29T09:09:22.335Z,100.00
2022-09-29T09:12:13.665Z,100.00
2022-09-29T09:14:59.214Z,100.00
2022-09-29T09:17:38.115Z,100.00
2022-09-29T09:20:25.344Z,100.00
2022-09-29T09:22:59.458Z,100.00
2022-09-29T09:25:31.439Z,100.00
2022-09-29T09:28:18.437Z,100.00
2022-09-29T09:30:54.725Z,100.00
2022-09-29T09:33:34.185Z,100.00
2022-09-29T09:36:08.780Z,100.00
2022-09-29T09:39:01.309Z,100.00
2022-09-29T09:41:35.548Z,98.15
2022-09-29T09:44:16.016Z,98.15
2022-09-29T09:46:47.470Z,92.94
2022-09-29T09:49:20.700Z,93.37
2022-09-29T09:54:52.025Z,90.92
2022-09-29T09:57:37.290Z,88.53
2022-09-29T10:00:15.893Z,90.10
2022-09-29T10:02:49.602Z,90.93
2022-09-29T10:05:19.054Z,90.90
2022-09-29T10:07:48.965Z,91.78
2022-09-29T10:10:19.565Z,88.40
2022-09-29T10:12:46.657Z,82.22
2022-09-29T10:15:22.669Z,81.32
2022-09-29T10:18:10.540Z,84.36
2022-09-29T10:20:39.257Z,85.50
2022-09-29T10:23:21.115Z,81.79
2022-09-29T10:26:16.710Z,77.57
2022-09-29T10:28:58.226Z,79.44
2022-09-29T10:31:34.040Z,81.65
2022-09-29T10:34:16.557Z,84.96
2022-09-29T10:36:56.090Z,84.95
2022-09-29T10:39:33.659Z,77.26
2022-09-29T10:42:00.882Z,79.58
2022-09-29T10:44:33.199Z,75.97
2022-09-29T10:47:00.558Z,80.00
2022-09-29T10:49:29.236Z,75.93
2022-09-29T10:52:03.902Z,78.27
2022-09-29T10:54:36.720Z,76.17
2022-09-29T10:57:15.689Z,76.46
2022-09-29T10:59:51.184Z,78.08
2022-09-29T11:02:39.881Z,77.42
2022-09-29T11:05:23.493Z,68.38
2022-09-29T11:07:52.814Z,68.64
2022-09-29T11:10:31.834Z,70.40
2022-09-29T11:13:00.787Z,73.08
2022-09-29T11:15:38.587Z,75.79
2022-09-29T11:18:32.110Z,78.20
2022-09-29T11:21:21.895Z,79.37
2022-09-29T11:24:01.555Z,78.89
2022-09-29T11:26:43.283Z,79.88
2022-09-29T11:29:32.437Z,76.48
2022-09-29T11:32:14.103Z,79.61
2022-09-29T11:34:44.104Z,79.76
2022-09-29T11:37:30.266Z,79.23
2022-09-29T11:40:03.457Z,79.04
2022-09-29T11:42:57.069Z,77.55
2022-09-29T11:45:50.356Z,74.70
2022-09-29T11:48:54.188Z,77.74
2022-09-29T11:51:37.909Z,75.67
2022-09-29T11:54:10.662Z,75.09
2022-09-29T11:56:59.259Z,73.23
2022-09-29T11:59:33.903Z,75.30
2022-09-29T12:02:22.767Z,75.39
2022-09-29T12:05:22.191Z,75.98
2022-09-29T12:08:05.833Z,74.78
2022-09-29T12:10:37.503Z,67.02
2022-09-29T12:13:18.834Z,61.94
2022-09-29T12:15:48.714Z,62.23
2022-09-29T12:18:20.332Z,66.00
2022-09-29T12:20:52.128Z,63.77
2022-09-29T12:23:23.014Z,66.22
2022-09-29T12:26:21.316Z,72.66
2022-09-29T12:29:01.038Z,72.50
2022-09-29T12:31:50.988Z,72.17
2022-09-29T12:34:23.924Z,71.29
2022-09-29T12:37:03.557Z,72.63
2022-09-29T12:39:55.653Z,76.05
2022-09-29T12:42:51.668Z,74.13
2022-09-29T12:45:51.234Z,74.21
2022-09-29T12:48:43.089Z,78.40
2022-09-29T12:51:20.180Z,79.55
2022-09-29T12:54:03.093Z,78.33
2022-09-29T12:56:32.928Z,77.48
2022-09-29T12:59:08.483Z,77.15
2022-09-29T13:01:41.041Z,76.21
2022-09-29T13:04:50.176Z,78.63
2022-09-29T13:07:40.320Z,79.41
2022-09-29T13:10:23.545Z,79.46
2022-09-29T13:13:12.017Z,80.33
2022-09-29T13:16:06.912Z,78.08
2022-09-29T13:19:00.287Z,78.63
2022-09-29T13:21:39.461Z,79.75
2022-09-29T13:24:18.995Z,78.28
2022-09-29T13:27:07.484Z,79.71
2022-09-29T13:29:49.918Z,80.46
2022-09-29T13:32:17.699Z,80.49
2022-09-29T13:34:54.229Z,78.10
2022-09-29T13:37:23.594Z,78.74
2022-09-29T13:40:01.270Z,79.53
2022-09-29T13:42:37.736Z,79.57
2022-09-29T13:45:31.498Z,77.97
2022-09-29T13:48:01.953Z,77.63
2022-09-29T13:50:43.763Z,79.90
2022-09-29T13:53:32.339Z,78.99
2022-09-29T13:56:02.455Z,78.88
2022-09-29T13:58:39.671Z,78.99
2022-09-29T14:01:09.246Z,77.36
2022-09-29T14:03:45.098Z,74.59
2022-09-29T14:06:41.759Z,73.30
2022-09-29T14:09:22.603Z,74.22
2022-09-29T14:11:52.699Z,75.40
2022-09-29T14:14:29.117Z,79.20
2022-09-29T14:17:15.018Z,77.60
2022-09-29T14:19:48.626Z,79.12
2022-09-29T14:22:30.940Z,77.20
2022-09-29T14:25:15.219Z,78.80
2022-09-29T14:28:01.448Z,78.78
2022-09-29T14:30:54.853Z,77.26
2022-09-29T14:33:24.773Z,77.34
2022-09-29T14:36:00.861Z,78.29
2022-09-29T14:38:38.842Z,76.79
2022-09-29T14:41:05.793Z,74.45
2022-09-29T14:43:41.965Z,75.09
2022-09-29T14:46:38.780Z,75.11
2022-09-29T14:49:52.199Z,72.88
2022-09-29T14:52:33.793Z,73.18
2022-09-29T14:55:15.146Z,74.19
2022-09-29T14:58:09.898Z,73.74
2022-09-29T15:00:56.605Z,75.37
2022-09-29T15:03:35.318Z,74.95
2022-09-29T15:06:10.953Z,74.43
2022-09-29T15:08:39.880Z,73.82
2022-09-29T15:11:30.770Z,75.86
2022-09-29T15:13:59.308Z,75.70
2022-09-29T15:16:43.050Z,76.05
2022-09-29T15:19:32.999Z,76.82
2022-09-29T15:22:27.343Z,78.64
2022-09-29T15:25:00.517Z,81.24
2022-09-29T15:27:28.012Z,81.76
2022-09-29T15:29:57.444Z,82.05
2022-09-29T15:32:28.656Z,81.95
2022-09-29T15:35:05.441Z,80.74
2022-09-29T15:37:47.445Z,78.32
2022-09-29T15:40:16.557Z,77.09
2022-09-29T15:42:46.573Z,76.96
2022-09-29T15:45:21.973Z,76.31
2022-09-29T15:47:59.878Z,78.48
2022-09-29T15:50:31.900Z,80.42
2022-09-29T15:53:03.209Z,78.84
2022-09-29T15:55:31.641Z,78.53
2022-09-29T15:57:59.046Z,78.97
2022-09-29T16:00:28.970Z,79.82
2022-09-29T16:03:19.934Z,77.64
2022-09-29T16:06:02.670Z,79.57
2022-09-29T16:08:34.193Z,76.13
2022-09-29T16:11:05.452Z,77.79
2022-09-29T16:13:35.907Z,75.52
2022-09-29T16:16:06.075Z,74.09
2022-09-29T16:18:41.172Z,74.24
2022-09-29T16:21:12.103Z,73.55
2022-09-29T16:23:49.751Z,77.59
2022-09-29T16:26:38.992Z,78.60
2022-09-29T16:29:15.644Z,83.82
2022-09-29T16:31:44.673Z,84.74
2022-09-29T16:34:20.702Z,86.39
2022-09-29T16:36:53.504Z,87.78
2022-09-29T16:39:24.836Z,88.82
2022-09-29T16:41:58.060Z,88.93
2022-09-29T16:44:32.007Z,88.72
2022-09-29T16:46:59.059Z,89.85
2022-09-29T16:49:35.813Z,89.84
2022-09-29T16:52:15.981Z,90.43
2022-09-29T16:54:44.608Z,90.98
2022-09-29T16:57:21.541Z,91.69
2022-09-29T16:59:54.221Z,91.94
2022-09-29T17:02:22.675Z,92.52
2022-09-29T17:04:51.200Z,92.50
2022-09-29T17:07:20.139Z,93.84
2022-09-29T17:09:54.762Z,96.89
2022-09-29T17:12:22.804Z,98.65
2022-09-29T17:14:50.951Z,99.63
2022-09-29T17:17:24.006Z,100.00
2022-09-29T17:19:52.509Z,100.00
2022-09-29T17:22:39.363Z,100.00
2022-09-29T17:25:07.301Z,100.00
2022-09-29T17:27:52.984Z,100.00
2022-09-29T17:30:23.298Z,100.00
2022-09-29T17:32:57.932Z,100.00
2022-09-29T17:35:30.697Z,100.00
2022-09-29T17:37:57.886Z,100.00
2022-09-29T17:40:30.855Z,100.00
2022-09-29T17:43:00.842Z,100.00
2022-09-29T17:45:29.915Z,100.00
2022-09-29T17:47:57.432Z,100.00
2022-09-29T17:50:28.151Z,100.00
2022-09-29T17:52:55.552Z,100.00
2022-09-29T17:55:23.331Z,100.00
2022-09-29T17:57:52.222Z,100.00
2022-09-29T18:00:22.952Z,100.00
2022-09-29T18:02:51.059Z,100.00
2022-09-29T18:05:25.188Z,100.00
2022-09-29T18:07:54.166Z,100.00
2022-09-29T18:10:29.070Z,100.00
2022-09-29T18:12:56.600Z,100.00
2022-09-29T18:15:24.369Z,100.00
2022-09-29T18:17:58.538Z,100.00
2022-09-29T18:20:27.746Z,100.00
2022-09-29T18:22:54.779Z,100.00
2022-09-29T18:25:21.829Z,100.00
2022-09-29T18:27:49.459Z,100.00
2022-09-29T18:30:20.315Z,100.00
2022-09-29T18:32:49.687Z,100.00
2022-09-29T18:35:20.823Z,100.00
2022-09-29T18:37:48.618Z,100.00
2022-09-29T18:40:15.944Z,100.00
2022-09-29T18:42:46.758Z,100.00
2022-09-29T18:45:22.830Z,100.00
2022-09-29T18:47:55.810Z,100.00
2022-09-29T18:50:28.501Z,100.00
2022-09-29T18:52:56.002Z,100.00
2022-09-29T18:55:25.879Z,100.00
2022-09-29T18:57:54.246Z,100.00
2022-09-29T19:00:24.079Z,100.00
2022-09-29T19:02:53.025Z,100.00
2022-09-29T19:05:28.985Z,100.00
2022-09-29T19:07:59.001Z,100.00
2022-09-29T19:10:31.085Z,100.00
2022-09-29T19:13:01.419Z,100.00
2022-09-29T19:15:33.058Z,100.00
2022-09-29T19:18:02.852Z,100.00
2022-09-29T19:20:30.045Z,100.00
2022-09-29T19:23:02.627Z,100.00
2022-09-29T19:25:34.244Z,100.00
2022-09-29T19:28:05.079Z,100.00
2022-09-29T19:30:36.577Z,100.00
2022-09-29T19:33:04.837Z,100.00
2022-09-29T19:35:32.061Z,100.00
2022-09-29T19:37:59.362Z,100.00
2022-09-29T19:40:30.297Z,100.00
2022-09-29T19:42:58.535Z,100.00
2022-09-29T19:45:25.777Z,100.00
2022-09-29T19:47:57.075Z,100.00
2022-09-29T19:50:43.751Z,100.00
2022-09-29T19:53:10.955Z,100.00
2022-09-29T19:55:41.086Z,100.00
2022-09-29T19:58:08.466Z,100.00
2022-09-29T20:00:36.004Z,100.00
2022-09-29T20:03:03.132Z,100.00
2022-09-29T20:05:30.262Z,100.00
2022-09-29T20:07:57.391Z,100.00
2022-09-29T20:10:28.381Z,100.00
2022-09-29T20:12:57.009Z,100.00
2022-09-29T20:15:26.828Z,100.00
2022-09-29T20:17:53.816Z,100.00
2022-09-29T20:20:24.260Z,100.00
2022-09-29T20:22:53.302Z,100.00
2022-09-29T20:25:21.051Z,100.00
2022-09-29T20:27:51.717Z,100.00
2022-09-29T20:30:20.646Z,100.00
2022-09-29T20:32:47.945Z,100.00
2022-09-29T20:35:15.037Z,100.00
2022-09-29T20:37:42.547Z,100.00
2022-09-29T20:40:10.272Z,100.00
2022-09-29T20:42:38.303Z,100.00
2022-09-29T20:45:06.215Z,100.00
2022-09-29T20:47:33.378Z,100.00
2022-09-29T20:50:00.374Z,100.00
2022-09-29T20:52:27.366Z,100.00
2022-09-29T20:55:00.705Z,100.00
2022-09-29T20:57:27.859Z,100.00
2022-09-29T20:59:55.577Z,100.00
2022-09-29T21:02:22.727Z,100.00
2022-09-29T21:04:49.770Z,100.00
2022-09-29T21:07:35.181Z,100.00
2022-09-29T21:10:04.484Z,100.00
2022-09-29T21:12:32.440Z,100.00
2022-09-29T21:14:59.916Z,100.00
2022-09-29T21:17:27.249Z,100.00
2022-09-29T21:19:54.374Z,100.00
2022-09-29T21:22:27.087Z,100.00
2022-09-29T21:24:54.833Z,100.00
2022-09-29T21:27:21.874Z,100.00
2022-09-29T21:29:48.929Z,100.00
2022-09-29T21:32:15.914Z,100.00
2022-09-29T21:34:42.899Z,100.00
2022-09-29T21:37:10.094Z,100.00
2022-09-29T21:39:37.137Z,100.00
2022-09-29T21:42:04.430Z,100.00
2022-09-29T21:44:31.544Z,100.00
2022-09-29T21:46:58.579Z,100.00
2022-09-29T21:49:25.628Z,100.00
2022-09-29T21:51:52.692Z,100.00
2022-09-29T21:54:22.787Z,100.00
2022-09-29T22:00:58.082Z,100.00
2022-09-29T22:03:28.638Z,100.00
2022-09-29T22:05:55.777Z,100.00
2022-09-29T22:08:23.370Z,100.00
2022-09-29T22:10:52.132Z,100.00
2022-09-29T22:13:20.412Z,100.00
2022-09-29T22:15:47.763Z,100.00
2022-09-29T22:18:14.760Z,100.00
2022-09-29T22:20:41.738Z,100.00
2022-09-29T22:23:08.766Z,100.00
2022-09-29T22:25:42.699Z,100.00
2022-09-29T22:28:10.530Z,100.00
2022-09-29T22:30:38.399Z,100.00
2022-09-29T22:33:06.187Z,100.00
2022-09-29T22:35:37.417Z,100.00
2022-09-29T22:38:08.013Z,100.00
2022-09-29T22:40:39.803Z,100.00
2022-09-29T22:43:07.331Z,100.00
2022-09-29T22:45:34.394Z,100.00
2022-09-29T22:48:01.659Z,100.00
2022-09-29T22:50:32.553Z,100.00
2022-09-29T22:52:59.835Z,100.00
2022-09-29T22:55:30.086Z,100.00
2022-09-29T22:57:57.872Z,100.00
2022-09-29T23:00:25.918Z,100.00
2022-09-29T23:02:52.933Z,100.00
2022-09-29T23:05:20.116Z,100.00
2022-09-29T23:07:47.100Z,100.00
2022-09-29T23:10:14.110Z,100.00
2022-09-29T23:12:42.571Z,100.00
2022-09-29T23:15:10.765Z,100.00
2022-09-29T23:17:37.800Z,100.00
2022-09-29T23:20:06.254Z,100.00
2022-09-29T23:22:33.262Z,100.00
2022-09-29T23:25:00.278Z,100.00
2022-09-29T23:27:30.200Z,100.00
2022-09-29T23:29:57.346Z,100.00
2022-09-29T23:32:24.391Z,100.00
2022-09-29T23:34:51.374Z,100.00
2022-09-29T23:37:18.454Z,100.00
2022-09-29T23:39:45.516Z,100.00
2022-09-29T23:42:13.436Z,100.00
2022-09-29T23:44:40.863Z,100.00
2022-09-29T23:47:08.223Z,100.00
2022-09-29T23:49:35.266Z,100.00
2022-09-29T23:52:06.026Z,100.00
2022-09-29T23:54:33.067Z,100.00
2022-09-29T23:57:00.096Z,100.00
2022-09-29T23:59:27.134Z,100.00
